createdAt,value
2018-03-16T00:00:44.986Z,7.60
2018-03-16T00:03:13.283Z,7.50
2018-03-16T00:05:42.222Z,7.40
2018-03-16T00:08:10.534Z,7.40
2018-03-16T00:10:38.839Z,7.30
2018-03-16T00:13:07.137Z,7.30
2018-03-16T00:15:35.455Z,7.20
2018-03-16T00:18:03.793Z,7.30
2018-03-16T00:20:32.098Z,7.30
2018-03-16T00:23:00.384Z,7.20
2018-03-16T00:25:28.682Z,7.20
2018-03-16T00:27:56.978Z,7.10
2018-03-16T00:30:25.264Z,7.10
2018-03-16T00:32:53.570Z,7.00
2018-03-16T00:35:21.886Z,7.00
2018-03-16T00:37:50.194Z,7.00
2018-03-16T00:40:18.470Z,7.00
2018-03-16T00:42:46.761Z,7.00
2018-03-16T00:45:15.070Z,7.00
2018-03-16T00:47:43.376Z,6.90
2018-03-16T00:50:12.462Z,7.00
2018-03-16T00:52:40.771Z,7.00
2018-03-16T00:55:09.058Z,7.00
2018-03-16T00:57:37.366Z,7.00
2018-03-16T01:00:05.649Z,6.90
2018-03-16T01:02:33.954Z,6.80
2018-03-16T01:05:02.267Z,6.80
2018-03-16T01:07:30.577Z,6.90
2018-03-16T01:09:59.629Z,6.90
2018-03-16T01:12:27.929Z,6.90
2018-03-16T01:14:56.218Z,6.90
2018-03-16T01:17:24.524Z,6.90
2018-03-16T01:19:53.578Z,6.80
2018-03-16T01:22:21.889Z,6.80
2018-03-16T01:24:50.173Z,6.80
2018-03-16T01:27:18.490Z,6.70
2018-03-16T01:29:46.784Z,6.60
2018-03-16T01:32:15.855Z,6.50
2018-03-16T01:34:44.157Z,6.40
2018-03-16T01:37:12.458Z,6.40
2018-03-16T01:39:40.768Z,6.30
2018-03-16T01:42:09.872Z,6.30
2018-03-16T01:44:39.672Z,6.10
2018-03-16T01:47:07.962Z,6.20
2018-03-16T01:49:36.262Z,6.10
2018-03-16T01:52:04.551Z,6.00
2018-03-16T01:54:32.880Z,6.00
2018-03-16T01:57:01.174Z,5.90
2018-03-16T01:59:29.469Z,5.80
2018-03-16T02:01:57.772Z,5.70
2018-03-16T02:04:26.090Z,5.70
2018-03-16T02:06:54.374Z,5.60
2018-03-16T02:09:22.669Z,5.60
2018-03-16T02:11:50.966Z,5.50
2018-03-16T02:14:19.270Z,5.40
2018-03-16T02:16:48.318Z,5.40
2018-03-16T02:19:16.627Z,5.30
2018-03-16T02:21:44.938Z,5.30
2018-03-16T02:24:13.233Z,5.40
2018-03-16T02:26:42.299Z,5.30
2018-03-16T02:29:10.597Z,5.30
2018-03-16T02:31:38.879Z,5.30
2018-03-16T02:34:07.186Z,5.40
2018-03-16T02:36:35.508Z,5.40
2018-03-16T02:39:05.315Z,5.60
2018-03-16T02:41:33.669Z,5.60
2018-03-16T02:44:03.131Z,5.80
2018-03-16T02:46:31.508Z,5.70
2018-03-16T02:48:59.839Z,5.80
2018-03-16T02:51:28.126Z,5.90
2018-03-16T02:53:56.442Z,5.80
2018-03-16T02:56:25.501Z,5.80
2018-03-16T02:58:54.959Z,5.70
2018-03-16T03:01:23.260Z,5.70
2018-03-16T03:03:51.562Z,5.80
2018-03-16T03:06:19.873Z,5.80
2018-03-16T03:08:48.183Z,5.90
2018-03-16T03:11:17.628Z,5.80
2018-03-16T03:13:45.929Z,5.80
2018-03-16T03:16:14.228Z,5.80
2018-03-16T03:18:42.505Z,5.70
2018-03-16T03:21:10.802Z,5.60
2018-03-16T03:23:39.077Z,5.60
2018-03-16T03:26:07.395Z,5.60
2018-03-16T03:28:35.677Z,5.60
2018-03-16T03:31:04.033Z,5.60
2018-03-16T03:33:32.351Z,5.70
2018-03-16T03:36:00.651Z,5.80
2018-03-16T03:38:28.933Z,5.80
2018-03-16T03:40:57.225Z,5.90
2018-03-16T03:43:25.510Z,6.00
2018-03-16T03:45:53.819Z,6.00
2018-03-16T03:48:22.117Z,6.00
2018-03-16T03:50:50.413Z,5.90
2018-03-16T03:53:18.702Z,5.90
2018-03-16T03:55:47.006Z,5.80
2018-03-16T03:58:16.062Z,5.60
2018-03-16T04:00:44.366Z,5.60
2018-03-16T04:03:12.666Z,5.50
2018-03-16T04:05:41.185Z,5.50
2018-03-16T04:08:10.528Z,5.50
2018-03-16T04:10:39.589Z,5.30
2018-03-16T04:13:07.876Z,5.30
2018-03-16T04:15:36.186Z,5.30
2018-03-16T04:18:04.481Z,5.30
2018-03-16T04:20:32.782Z,5.30
2018-03-16T04:23:01.078Z,5.30
2018-03-16T04:25:29.398Z,5.40
2018-03-16T04:27:58.450Z,5.50
2018-03-16T04:30:27.528Z,7.10
2018-03-16T04:32:55.818Z,5.50
2018-03-16T04:35:24.122Z,5.70
2018-03-16T04:37:52.418Z,5.80
2018-03-16T04:40:20.737Z,5.80
2018-03-16T04:42:49.042Z,5.90
2018-03-16T04:45:17.331Z,5.90
2018-03-16T04:47:45.630Z,5.90
2018-03-16T04:50:14.682Z,5.80
2018-03-16T04:52:42.982Z,5.70
2018-03-16T04:55:11.262Z,5.70
2018-03-16T04:57:39.561Z,5.60
2018-03-16T05:00:07.920Z,5.60
2018-03-16T05:02:36.245Z,5.70
2018-03-16T05:05:04.547Z,5.70
2018-03-16T05:07:32.843Z,5.70
2018-03-16T05:10:01.121Z,5.70
2018-03-16T05:12:29.439Z,5.80
2018-03-16T05:14:58.491Z,5.70
2018-03-16T05:17:27.564Z,5.70
2018-03-16T05:19:56.722Z,5.70
2018-03-16T05:22:25.026Z,5.70
2018-03-16T05:24:53.313Z,5.80
2018-03-16T05:27:21.610Z,5.80
2018-03-16T05:29:49.900Z,5.90
2018-03-16T05:32:18.219Z,5.90
2018-03-16T05:34:47.282Z,6.00
2018-03-16T05:37:15.594Z,6.00
2018-03-16T05:39:43.895Z,6.10
2018-03-16T05:42:12.963Z,6.20
2018-03-16T05:44:41.273Z,6.20
2018-03-16T05:47:09.575Z,6.30
2018-03-16T05:49:37.857Z,6.40
2018-03-16T05:52:06.317Z,6.40
2018-03-16T05:54:34.679Z,6.40
2018-03-16T05:57:04.021Z,6.40
2018-03-16T05:59:32.339Z,6.40
2018-03-16T06:02:00.781Z,6.50
2018-03-16T06:04:29.116Z,6.60
2018-03-16T06:06:57.436Z,6.60
2018-03-16T06:09:26.834Z,6.90
2018-03-16T06:11:55.243Z,6.80
2018-03-16T06:14:24.841Z,7.00
2018-03-16T06:16:53.387Z,7.00
2018-03-16T06:19:22.124Z,7.20
2018-03-16T06:21:50.670Z,7.20
2018-03-16T06:24:19.318Z,7.40
2018-03-16T06:26:47.751Z,7.50
2018-03-16T06:29:16.953Z,7.60
2018-03-16T06:31:46.170Z,7.70
2018-03-16T06:34:15.330Z,7.70
2018-03-16T06:36:44.849Z,7.80
2018-03-16T06:39:13.383Z,7.70
2018-03-16T06:41:42.559Z,7.80
2018-03-16T06:44:11.658Z,7.80
2018-03-16T06:46:40.176Z,7.80
2018-03-16T06:49:08.566Z,7.80
2018-03-16T06:51:37.443Z,7.90
2018-03-16T06:54:05.813Z,7.90
2018-03-16T06:56:34.140Z,7.90
2018-03-16T06:59:02.567Z,8.00
2018-03-16T07:01:31.174Z,8.10
2018-03-16T07:04:00.411Z,8.10
2018-03-16T07:06:28.709Z,8.10
2018-03-16T07:08:57.046Z,8.20
2018-03-16T07:11:25.380Z,8.20
2018-03-16T07:13:54.415Z,8.10
2018-03-16T07:16:22.723Z,8.10
2018-03-16T07:18:51.032Z,8.10
2018-03-16T07:21:21.055Z,8.30
2018-03-16T07:23:49.404Z,8.20
2018-03-16T07:26:17.735Z,8.30
2018-03-16T07:28:46.821Z,8.50
2018-03-16T07:31:16.627Z,8.50
2018-03-16T07:33:44.957Z,8.60
2018-03-16T07:36:13.254Z,8.70
2018-03-16T07:38:42.432Z,8.80
2018-03-16T07:41:11.977Z,8.80
2018-03-16T07:43:40.264Z,8.80
2018-03-16T07:46:14.697Z,8.60
2018-03-16T07:48:42.981Z,8.60
2018-03-16T07:51:12.071Z,8.50
2018-03-16T07:53:40.370Z,8.50
2018-03-16T07:56:08.699Z,8.60
2018-03-16T07:58:38.495Z,8.70
2018-03-16T08:01:06.834Z,8.70
2018-03-16T08:03:35.149Z,8.80
2018-03-16T08:06:05.388Z,8.80
2018-03-16T08:08:33.675Z,9.00
2018-03-16T08:11:01.989Z,9.00
2018-03-16T08:13:30.283Z,9.10
2018-03-16T08:15:58.632Z,9.10
2018-03-16T08:18:26.922Z,9.20
2018-03-16T08:20:55.256Z,9.40
2018-03-16T08:23:23.558Z,9.70
2018-03-16T08:25:51.874Z,10.00
2018-03-16T08:28:20.180Z,10.00
2018-03-16T08:30:48.514Z,10.30
2018-03-16T08:33:16.877Z,10.50
2018-03-16T08:35:45.990Z,10.30
2018-03-16T08:38:14.284Z,10.30
2018-03-16T08:40:42.618Z,10.20
2018-03-16T08:43:10.953Z,10.20
2018-03-16T08:45:40.078Z,10.60
2018-03-16T08:48:08.347Z,10.60
2018-03-16T08:50:36.766Z,11.10
2018-03-16T08:53:05.923Z,11.40
2018-03-16T08:55:34.241Z,11.40
2018-03-16T08:58:02.612Z,11.60
2018-03-16T09:00:30.930Z,11.80
2018-03-16T09:02:59.244Z,11.90
2018-03-16T09:05:27.576Z,12.00
2018-03-16T09:07:55.905Z,12.10
2018-03-16T09:10:24.211Z,12.10
2018-03-16T09:12:52.523Z,12.10
2018-03-16T09:17:50.515Z,11.80
2018-03-16T09:20:18.863Z,11.60
2018-03-16T09:22:47.195Z,11.50
2018-03-16T09:25:15.501Z,11.40
2018-03-16T09:27:44.955Z,11.10
2018-03-16T09:30:13.267Z,11.10
2018-03-16T09:32:41.589Z,11.10
2018-03-16T09:35:10.650Z,11.00
2018-03-16T09:37:39.913Z,11.00
2018-03-16T09:40:09.002Z,11.10
2018-03-16T09:42:37.314Z,11.00
2018-03-16T09:45:06.383Z,11.20
2018-03-16T09:47:34.698Z,11.20
2018-03-16T09:50:03.767Z,11.60
2018-03-16T09:52:32.100Z,11.60
2018-03-16T09:55:18.758Z,11.90
2018-03-16T09:57:47.087Z,11.90
2018-03-16T10:00:15.403Z,12.20
2018-03-16T10:02:44.493Z,12.50
2018-03-16T10:05:12.791Z,12.50
2018-03-16T10:07:41.107Z,12.70
2018-03-16T10:10:09.414Z,12.70
2018-03-16T10:12:37.709Z,12.80
2018-03-16T10:15:06.038Z,12.60
2018-03-16T10:17:34.362Z,12.60
2018-03-16T10:20:03.426Z,12.70
2018-03-16T10:22:31.775Z,12.60
2018-03-16T10:25:00.078Z,12.70
2018-03-16T10:27:28.399Z,12.80
2018-03-16T10:29:57.498Z,12.80
2018-03-16T10:32:25.837Z,12.80
2018-03-16T10:34:54.900Z,13.00
2018-03-16T10:37:23.213Z,13.00
2018-03-16T10:39:51.521Z,13.00
2018-03-16T10:42:20.692Z,12.80
2018-03-16T10:44:48.997Z,12.80
2018-03-16T10:47:18.115Z,13.00
2018-03-16T10:49:46.438Z,13.00
2018-03-16T10:52:15.039Z,13.20
2018-03-16T10:54:43.604Z,13.40
2018-03-16T10:57:12.726Z,13.40
2018-03-16T10:59:41.997Z,13.40
2018-03-16T11:02:15.906Z,13.30
2018-03-16T11:04:45.685Z,13.50
2018-03-16T11:07:18.468Z,13.60
2018-03-16T11:09:47.892Z,13.20
2018-03-16T11:12:18.592Z,13.10
2018-03-16T11:14:47.086Z,13.10
2018-03-16T11:17:15.882Z,13.10
2018-03-16T11:19:48.686Z,13.00
2018-03-16T11:22:17.145Z,12.60
2018-03-16T11:24:45.562Z,12.50
2018-03-16T11:27:14.004Z,12.60
2018-03-16T11:29:43.218Z,13.20
2018-03-16T11:32:11.614Z,13.20
2018-03-16T11:34:40.100Z,13.50
2018-03-16T11:37:09.229Z,13.70
2018-03-16T11:39:38.528Z,14.00
2018-03-16T11:44:41.723Z,14.10
2018-03-16T11:47:10.131Z,14.00
2018-03-16T11:49:38.582Z,14.10
2018-03-16T11:52:06.998Z,14.40
2018-03-16T11:54:35.782Z,14.30
2018-03-16T11:57:04.150Z,14.20
2018-03-16T11:59:32.489Z,13.90
2018-03-16T12:02:00.888Z,13.40
2018-03-16T12:04:29.481Z,13.00
2018-03-16T12:06:58.232Z,13.00
2018-03-16T12:09:26.783Z,12.80
2018-03-16T12:11:55.913Z,12.60
2018-03-16T12:14:25.596Z,12.40
2018-03-16T12:16:54.280Z,12.30
2018-03-16T12:19:23.396Z,12.60
2018-03-16T12:21:52.124Z,12.70
2018-03-16T12:24:20.483Z,12.90
2018-03-16T12:26:48.990Z,13.00
2018-03-16T12:29:17.768Z,12.90
2018-03-16T12:31:46.198Z,12.80
2018-03-16T12:34:16.064Z,12.60
2018-03-16T12:36:44.488Z,12.60
2018-03-16T12:39:13.148Z,12.30
2018-03-16T12:41:43.085Z,12.30
2018-03-16T12:44:11.665Z,12.40
2018-03-16T12:46:40.314Z,12.40
2018-03-16T12:49:08.824Z,12.50
2018-03-16T12:51:42.191Z,12.50
2018-03-16T12:54:06.094Z,12.60
2018-03-16T12:56:36.199Z,12.80
2018-03-16T12:59:04.824Z,12.80
2018-03-16T13:01:33.286Z,12.90
2018-03-16T13:04:01.915Z,12.70
2018-03-16T13:06:30.322Z,12.70
2018-03-16T13:08:58.641Z,13.00
2018-03-16T13:11:27.827Z,13.70
2018-03-16T13:13:56.245Z,13.70
2018-03-16T13:16:25.435Z,14.00
2018-03-16T13:21:27.530Z,13.80
2018-03-16T13:23:56.164Z,13.60
2018-03-16T13:26:25.426Z,13.50
2018-03-16T13:28:53.754Z,13.40
2018-03-16T13:33:51.979Z,13.80
2018-03-16T13:36:21.532Z,13.80
2018-03-16T13:38:50.037Z,13.80
2018-03-16T13:41:18.553Z,13.60
2018-03-16T13:43:47.258Z,13.50
2018-03-16T13:46:15.804Z,13.50
2018-03-16T13:48:44.412Z,13.30
2018-03-16T13:51:13.096Z,13.30
2018-03-16T13:53:41.532Z,13.10
2018-03-16T13:56:11.217Z,13.00
2018-03-16T13:58:40.053Z,12.90
2018-03-16T14:01:08.406Z,12.70
2018-03-16T14:03:37.135Z,12.80
2018-03-16T14:06:05.648Z,12.90
2018-03-16T14:08:34.070Z,13.00
2018-03-16T14:11:03.963Z,12.70
2018-03-16T14:13:32.337Z,12.70
2018-03-16T14:16:00.947Z,12.80
2018-03-16T14:18:29.573Z,12.60
2018-03-16T14:20:59.554Z,12.60
2018-03-16T14:23:28.843Z,12.60
2018-03-16T14:25:58.018Z,12.60
2018-03-16T14:28:26.894Z,12.80
2018-03-16T14:30:55.583Z,13.00
2018-03-16T14:33:24.550Z,13.10
2018-03-16T14:35:54.475Z,13.20
2018-03-16T14:38:24.042Z,13.20
2018-03-16T14:40:52.600Z,13.00
2018-03-16T14:43:21.088Z,12.80
2018-03-16T14:45:50.426Z,12.70
2018-03-16T14:48:18.738Z,12.70
2018-03-16T14:50:47.029Z,12.80
2018-03-16T14:53:15.347Z,12.80
2018-03-16T14:55:44.420Z,12.90
2018-03-16T14:58:12.742Z,12.90
2018-03-16T15:00:41.056Z,12.90
2018-03-16T15:03:09.371Z,13.00
2018-03-16T15:05:37.675Z,13.00
2018-03-16T15:08:06.767Z,13.00
2018-03-16T15:10:35.072Z,12.90
2018-03-16T15:13:04.188Z,13.50
2018-03-16T15:15:32.483Z,12.70
2018-03-16T15:18:00.805Z,12.70
2018-03-16T15:20:29.907Z,12.60
2018-03-16T15:22:59.982Z,12.50
2018-03-16T15:25:28.327Z,12.50
2018-03-16T15:27:56.615Z,12.60
2018-03-16T15:30:24.873Z,12.60
2018-03-16T15:32:53.361Z,12.80
2018-03-16T15:35:21.888Z,12.90
2018-03-16T15:37:51.202Z,12.90
2018-03-16T15:40:19.823Z,12.90
2018-03-16T15:42:48.305Z,12.90
2018-03-16T15:45:17.400Z,12.80
2018-03-16T15:47:45.649Z,12.80
2018-03-16T15:52:38.217Z,12.80
2018-03-16T15:55:06.502Z,12.80
2018-03-16T15:57:34.765Z,12.70
2018-03-16T16:00:03.850Z,12.60
2018-03-16T16:02:32.154Z,12.60
2018-03-16T16:05:00.478Z,12.60
2018-03-16T16:07:28.836Z,12.50
2018-03-16T16:09:57.275Z,12.50
2018-03-16T16:12:25.867Z,12.40
2018-03-16T16:14:54.673Z,12.40
2018-03-16T16:17:22.990Z,12.30
2018-03-16T16:19:51.296Z,12.10
2018-03-16T16:22:19.573Z,12.00
2018-03-16T16:24:47.852Z,12.00
2018-03-16T16:27:16.502Z,12.10
2018-03-16T16:29:45.009Z,12.10
2018-03-16T16:34:43.777Z,12.00
2018-03-16T16:37:12.182Z,12.00
2018-03-16T16:39:40.585Z,11.90
2018-03-16T16:42:09.855Z,11.70
2018-03-16T16:44:39.801Z,11.60
2018-03-16T16:47:08.464Z,11.60
2018-03-16T16:49:37.149Z,11.60
2018-03-16T16:52:05.550Z,11.60
2018-03-16T16:54:34.101Z,11.70
2018-03-16T16:57:02.588Z,11.60
2018-03-16T16:59:30.925Z,11.60
2018-03-16T17:02:00.557Z,11.50
2018-03-16T17:04:29.327Z,11.40
2018-03-16T17:06:58.586Z,11.10
2018-03-16T17:09:27.258Z,11.10
2018-03-16T17:11:55.929Z,11.00
2018-03-16T17:14:25.293Z,10.60
2018-03-16T17:16:53.766Z,10.60
2018-03-16T17:19:22.547Z,10.40
2018-03-16T17:21:52.097Z,10.10
2018-03-16T17:24:21.449Z,10.10
2018-03-16T17:26:50.221Z,9.90
2018-03-16T17:29:18.730Z,9.90
2018-03-16T17:31:47.145Z,9.70
2018-03-16T17:34:15.692Z,9.60
2018-03-16T17:36:44.225Z,9.50
2018-03-16T17:39:12.720Z,9.30
2018-03-16T17:41:41.476Z,9.30
2018-03-16T17:44:09.889Z,9.10
2018-03-16T17:46:38.434Z,9.00
2018-03-16T17:49:07.511Z,8.90
2018-03-16T17:51:36.744Z,8.80
2018-03-16T17:54:06.040Z,8.70
2018-03-16T17:56:35.900Z,8.60
2018-03-16T17:59:05.356Z,8.50
2018-03-16T18:01:33.991Z,8.50
2018-03-16T18:04:02.490Z,8.40
2018-03-16T18:06:31.213Z,8.30
2018-03-16T18:09:01.102Z,8.20
2018-03-16T18:11:29.781Z,8.10
2018-03-16T18:13:58.665Z,8.20
2018-03-16T18:16:27.411Z,8.10
2018-03-16T18:18:57.231Z,7.90
2018-03-16T18:21:26.478Z,7.80
2018-03-16T18:23:55.183Z,7.80
2018-03-16T18:26:24.619Z,7.70
2018-03-16T18:28:53.147Z,7.70
2018-03-16T18:31:21.493Z,7.60
2018-03-16T18:33:50.581Z,7.50
2018-03-16T18:36:19.726Z,7.40
2018-03-16T18:38:48.657Z,7.30
2018-03-16T18:41:17.130Z,7.30
2018-03-16T18:43:45.933Z,7.30
2018-03-16T18:46:14.965Z,7.40
2018-03-16T18:48:43.738Z,7.40
2018-03-16T18:51:12.233Z,7.40
2018-03-16T18:53:40.656Z,7.50
2018-03-16T18:56:09.206Z,7.40
2018-03-16T18:58:37.879Z,7.40
2018-03-16T19:01:07.058Z,7.40
2018-03-16T19:03:35.863Z,7.30
2018-03-16T19:06:04.188Z,7.40
2018-03-16T19:08:33.476Z,7.40
2018-03-16T19:11:01.750Z,7.30
2018-03-16T19:13:30.502Z,7.30
2018-03-16T19:16:00.008Z,7.30
2018-03-16T19:18:29.868Z,7.20
2018-03-16T19:20:58.296Z,7.20
2018-03-16T19:23:26.684Z,7.10
2018-03-16T19:25:55.013Z,7.10
2018-03-16T19:28:23.630Z,7.10
2018-03-16T19:30:51.981Z,7.10
2018-03-16T19:33:21.690Z,7.00
2018-03-16T19:35:50.009Z,6.90
2018-03-16T19:38:19.169Z,6.90
2018-03-16T19:40:47.529Z,6.80
2018-03-16T19:43:15.808Z,6.80
2018-03-16T19:45:44.273Z,6.70
2018-03-16T19:48:12.582Z,6.60
2018-03-16T19:50:41.655Z,6.50
2018-03-16T19:53:09.939Z,6.40
2018-03-16T19:55:38.237Z,6.40
2018-03-16T19:58:06.484Z,6.40
2018-03-16T20:00:34.764Z,6.30
2018-03-16T20:03:03.029Z,6.30
2018-03-16T20:05:33.214Z,6.10
2018-03-16T20:08:01.478Z,6.10
2018-03-16T20:10:29.788Z,6.10
2018-03-16T20:12:58.102Z,6.10
2018-03-16T20:15:26.445Z,6.10
2018-03-16T20:17:54.752Z,6.00
2018-03-16T20:20:23.041Z,6.00
2018-03-16T20:22:51.332Z,5.90
2018-03-16T20:25:19.586Z,5.90
2018-03-16T20:27:48.710Z,5.80
2018-03-16T20:30:16.975Z,5.70
2018-03-16T20:32:46.019Z,5.70
2018-03-16T20:35:14.282Z,5.60
2018-03-16T20:37:49.189Z,5.50
2018-03-16T20:40:17.465Z,5.40
2018-03-16T20:42:45.758Z,5.40
2018-03-16T20:45:14.057Z,5.30
2018-03-16T20:47:42.330Z,5.30
2018-03-16T20:50:10.681Z,5.20
2018-03-16T20:52:38.885Z,5.20
2018-03-16T20:55:07.157Z,5.20
2018-03-16T20:57:36.229Z,5.10
2018-03-16T21:00:04.486Z,5.00
2018-03-16T21:02:32.753Z,5.00
2018-03-16T21:05:01.002Z,5.00
2018-03-16T21:07:29.313Z,5.00
2018-03-16T21:09:58.419Z,5.10
2018-03-16T21:12:27.479Z,5.10
2018-03-16T21:17:26.292Z,5.00
2018-03-16T21:19:54.673Z,5.00
2018-03-16T21:22:22.961Z,5.00
2018-03-16T21:24:51.263Z,4.90
2018-03-16T21:27:19.621Z,4.90
2018-03-16T21:29:48.653Z,4.90
2018-03-16T21:32:16.916Z,4.80
2018-03-16T21:34:46.748Z,4.60
2018-03-16T21:37:15.040Z,4.60
2018-03-16T21:39:43.341Z,4.60
2018-03-16T21:42:11.634Z,4.50
2018-03-16T21:44:39.880Z,4.40
2018-03-16T21:47:08.203Z,4.40
2018-03-16T21:49:36.485Z,4.30
2018-03-16T21:52:05.529Z,4.20
2018-03-16T21:54:33.776Z,4.10
2018-03-16T21:57:03.573Z,4.00
2018-03-16T21:59:31.831Z,4.00
2018-03-16T22:02:00.133Z,4.00
2018-03-16T22:04:28.418Z,4.00
2018-03-16T22:06:57.544Z,3.90
2018-03-16T22:09:25.993Z,3.80
2018-03-16T22:11:55.435Z,3.80
2018-03-16T22:14:24.608Z,3.80
2018-03-16T22:16:52.906Z,3.80
2018-03-16T22:19:21.192Z,3.80
2018-03-16T22:21:49.478Z,3.70
2018-03-16T22:24:17.749Z,3.70
2018-03-16T22:26:46.780Z,3.70
2018-03-16T22:29:15.064Z,3.70
2018-03-16T22:31:43.337Z,3.70
2018-03-16T22:34:12.370Z,3.60
2018-03-16T22:36:40.660Z,3.60
2018-03-16T22:39:08.944Z,3.50
2018-03-16T22:41:37.205Z,3.50
2018-03-16T22:44:06.253Z,3.50
2018-03-16T22:46:34.521Z,3.40
2018-03-16T22:49:02.801Z,3.40
2018-03-16T22:51:31.851Z,3.30
2018-03-16T22:54:00.121Z,3.30
2018-03-16T22:56:28.536Z,3.30
2018-03-16T22:58:57.012Z,3.30
2018-03-16T23:01:25.402Z,3.40
2018-03-16T23:03:53.787Z,3.30
2018-03-16T23:06:22.046Z,3.30
2018-03-16T23:08:51.072Z,3.20
2018-03-16T23:11:20.080Z,3.20
2018-03-16T23:13:48.348Z,3.10
2018-03-16T23:16:17.410Z,3.10
2018-03-16T23:18:45.721Z,3.00
2018-03-16T23:21:13.976Z,3.00
2018-03-16T23:23:42.254Z,2.90
2018-03-16T23:26:11.648Z,2.90
2018-03-16T23:28:39.934Z,2.90
2018-03-16T23:31:08.939Z,2.90
2018-03-16T23:33:37.964Z,2.80
2018-03-16T23:36:06.229Z,2.80
2018-03-16T23:38:35.254Z,2.80
2018-03-16T23:41:03.521Z,2.70
2018-03-16T23:43:32.564Z,2.70
2018-03-16T23:46:00.883Z,2.60
2018-03-16T23:48:29.209Z,2.70
2018-03-16T23:50:57.564Z,2.70
2018-03-16T23:53:26.067Z,2.70
2018-03-16T23:58:24.336Z,2.60
